»·PEaware :: UAL1779 KDEN-KABQ

UAL1779 :: KDEN-KABQ

FLIGHT INFORMATION

Flight Status: Arrived
Operator:
United Airlines
More flights by this operator :: More flights under this callsign
Pilot: Patricio R. (14780)
Aircraft: AIRBUS A320
(A320)
More flights by this aircraft type
Origin: KDEN Denver Intl
United States
Destination: KABQ Albuquerque Intl Sunport
United States
More flights between these airports :: More routes between these airports
Route: SPAZZ4 ZAPAA DATME SNDIA3
File this flight plan on PilotEdge
Remarks: PBN / A1B1C1D1O1S1 DOF / 180917 REG / FFA320 EET / KZAB0035 OPR / UAL PER / C RMK / TCAS SIMBRIEF
Altitude:
(Current/Filed)
32,000ft
Speed:
(Current/Filed)
460kts
Departed: 16-Sep-18 06:14 PM
Arrived: 16-Sep-18 07:08 PM
Distance/Time
Traveled:
303nm/0:53
Distance/Time
To Go:
Arrived

Flight Plot

Page will automatically refresh every two minutes.

Flight plan parsing failed; only flown route is shown


Map Options




Map Legend


Flown Route
Filed Route
Departure Airport
Arrival Airport
Navaid (VOR, NDB)
Fix

Horizontal Profiles

Position Reports

Time Latitude Longitude Heading Altitude Ground
Speed
16-Sep-18 17:48 39.859278 -104.679267 180 5443ft 0kts
16-Sep-18 17:49 39.859278 -104.679267 179 5443ft 0kts
16-Sep-18 17:50 39.859278 -104.679267 179 5443ft 0kts
16-Sep-18 17:56 39.859278 -104.679267 179 5443ft 0kts
16-Sep-18 17:57 39.859278 -104.679267 179 5443ft 0kts
16-Sep-18 17:58 39.859278 -104.679267 179 5443ft 0kts
16-Sep-18 17:59 39.859278 -104.679267 179 5443ft 0kts
16-Sep-18 18:00 39.859278 -104.679267 179 5443ft 0kts
16-Sep-18 18:01 39.859278 -104.679267 179 5443ft 0kts
16-Sep-18 18:02 39.859278 -104.679267 179 5443ft 0kts
16-Sep-18 18:03 39.859279 -104.679267 179 5443ft 0kts
16-Sep-18 18:04 39.859494 -104.679266 180 5443ft 2kts
16-Sep-18 18:05 39.860091 -104.679263 180 5443ft 2kts
16-Sep-18 18:06 39.860689 -104.679260 179 5443ft 2kts
16-Sep-18 18:07 39.860818 -104.679260 180 5443ft 0kts
16-Sep-18 18:08 39.860807 -104.679260 180 5443ft 1kts
16-Sep-18 18:09 39.860671 -104.680253 270 5443ft 0kts
16-Sep-18 18:10 39.860461 -104.681909 245 5443ft 12kts
16-Sep-18 18:11 39.856969 -104.683947 179 5443ft 19kts
16-Sep-18 18:12 39.850942 -104.684015 179 5443ft 21kts
16-Sep-18 18:13 39.845229 -104.684102 179 5443ft 19kts
16-Sep-18 18:14 39.840651 -104.684872 270 5443ft 9kts
16-Sep-18 18:15 39.840653 -104.684982 271 5443ft 0kts
16-Sep-18 18:16 39.840885 -104.716190 269 5706ft 180kts
16-Sep-18 18:17 39.837357 -104.770691 250 7794ft 198kts
16-Sep-18 18:18 39.817184 -104.851676 249 9538ft 275kts
16-Sep-18 18:19 39.759194 -104.921194 189 12181ft 304kts
16-Sep-18 18:20 39.675284 -104.918185 169 15328ft 311kts
16-Sep-18 18:21 39.591206 -104.881945 152 17324ft 348kts
16-Sep-18 18:22 39.500126 -104.819031 156 18731ft 385kts
16-Sep-18 18:23 39.400180 -104.767092 161 20773ft 393kts
16-Sep-18 18:24 39.291968 -104.749975 168 22636ft 401kts
16-Sep-18 18:25 39.180849 -104.743197 180 24329ft 406kts
16-Sep-18 18:26 39.067002 -104.739146 185 25830ft 413kts
16-Sep-18 18:27 38.958729 -104.788273 207 26776ft 427kts
16-Sep-18 18:28 38.848521 -104.854210 207 27543ft 449kts
16-Sep-18 18:29 38.735165 -104.921710 207 28884ft 453kts
16-Sep-18 18:30 38.620830 -104.989579 208 30268ft 451kts
16-Sep-18 18:31 38.509034 -105.055695 208 31954ft 441kts
16-Sep-18 18:32 38.398507 -105.120883 208 32165ft 435kts
16-Sep-18 18:33 38.288690 -105.185449 208 32151ft 436kts
16-Sep-18 18:34 38.179073 -105.249816 208 32192ft 436kts
16-Sep-18 18:35 38.068952 -105.314047 208 32234ft 436kts
16-Sep-18 18:36 37.959228 -105.377877 208 32283ft 436kts
16-Sep-18 18:37 37.849635 -105.441425 208 32274ft 435kts
16-Sep-18 18:38 37.739651 -105.504994 208 32273ft 435kts
16-Sep-18 18:39 37.629893 -105.568225 208 32274ft 435kts
16-Sep-18 18:40 37.519846 -105.631415 208 32276ft 435kts
16-Sep-18 18:41 37.410036 -105.694267 208 32279ft 436kts
16-Sep-18 18:42 37.299647 -105.757241 208 32286ft 436kts
16-Sep-18 18:43 37.189413 -105.819926 208 32285ft 436kts
16-Sep-18 18:44 37.078793 -105.882629 207 32269ft 437kts
16-Sep-18 18:45 36.967550 -105.945493 206 32225ft 444kts
16-Sep-18 18:46 36.854645 -106.009077 206 32266ft 451kts
16-Sep-18 18:47 36.741385 -106.072645 206 32326ft 454kts
16-Sep-18 18:48 36.625178 -106.133280 201 32326ft 455kts
16-Sep-18 18:49 36.506546 -106.186188 202 32301ft 453kts
16-Sep-18 18:50 36.387772 -106.239013 201 31444ft 457kts
16-Sep-18 18:51 36.269593 -106.291218 201 29009ft 450kts
16-Sep-18 18:52 36.153220 -106.342134 201 26601ft 441kts
16-Sep-18 18:53 36.039996 -106.391506 201 24368ft 428kts
16-Sep-18 18:54 35.929631 -106.439038 201 22379ft 408kts
16-Sep-18 18:55 35.827101 -106.481461 200 20976ft 380kts
16-Sep-18 18:56 35.728354 -106.521714 200 18990ft 371kts
16-Sep-18 18:57 35.631892 -106.560963 200 17029ft 361kts
16-Sep-18 18:58 35.539783 -106.605592 205 15077ft 352kts
16-Sep-18 18:59 35.454195 -106.651622 204 13936ft 324kts
16-Sep-18 19:00 35.372839 -106.695431 204 12314ft 317kts
16-Sep-18 19:01 35.293370 -106.738126 204 10740ft 310kts
16-Sep-18 19:02 35.217650 -106.784329 207 9439ft 294kts
16-Sep-18 19:03 35.163523 -106.845982 239 9074ft 258kts
16-Sep-18 19:04 35.108582 -106.890880 162 9067ft 267kts
16-Sep-18 19:05 35.074064 -106.819911 103 8433ft 249kts
16-Sep-18 19:06 35.048018 -106.745676 101 7893ft 218kts
16-Sep-18 19:07 35.044557 -106.685255 88 6959ft 164kts
16-Sep-18 19:08 35.044386 -106.631376 88 5500ft 150kts
16-Sep-18 19:09 35.044352 -106.593458 75 5333ft 43kts
16-Sep-18 19:10 35.045841 -106.594995 270 5331ft 22kts
16-Sep-18 19:11 35.045748 -106.602742 270 5328ft 23kts
16-Sep-18 19:12 35.045797 -106.610593 270 5324ft 21kts
16-Sep-18 19:13 35.045546 -106.614473 271 5323ft 12kts
16-Sep-18 19:14 35.045873 -106.616795 24 5322ft 5kts
16-Sep-18 19:15 35.046922 -106.616393 12 5323ft 0kts
16-Sep-18 19:16 35.046922 -106.616393 12 5323ft 0kts

Navigation Log

Ident Type
Flight plan parsing failed, navigation log unavailable